Main page
METAR-TAF:

METAR-TAF

Airports :

Waterford Airport

Waterford, Ireland

latitude: 52-11-14N, longitude: 7-05-13W, elevation: 36 m

Current weather observation

The report was made 10 minutes ago, at 20:30 UTC
Wind 4 kt from the South
Temperature 12°C
Humidity 82%
Pressure 1032 hPa
Visibility 10 km or more
no clouds below 1500 m and no cumulonimbus

METAR: EIWF 222030Z 17004KT CAVOK 12/09 Q1032

Time: 21:40 (20:40 UTC)

Forecast

The report was made 40 minutes ago, at 20:00 UTC
Forecast valid from 22 at 21 UTC to 23 at 06 UTC
Wind 10 kt from the South/Southwest
Visibility 10 km or more
no clouds below 1500 m and no cumulonimbus
Becoming
from 22 at 23 UTC to 23 at 02 UTC
Wind 3 kt from variable directions
Probability 40%
from 23 at 02 UTC to 23 at 05 UTC
Visibility: 3000 m
mist

TAF: EIWF 222000Z 2221/2306 20010KT CAVOK BECMG 2223/2302 VRB03KT PROB40 2302/2305 3000 BR

Weather observations and forecasts of more than 4000 airports (METAR and TAF reports).

The available stations are represented by yellow and red dots on the map.

Hover mouse over dot to see the name of the station.

Then click to see weather observations and forecasts.

To change the map : click on the green buttons with a black cross to zoom in, on the green button with a dash to zoom out, or on the green arrows for adjacent maps.


METAR-TAF: